createdAt,value
2019-01-02T00:02:00.619Z,70.21
2019-01-02T00:04:29.404Z,70.49
2019-01-02T00:06:58.184Z,70.21
2019-01-02T00:09:26.970Z,69.83
2019-01-02T00:11:56.125Z,70.11
2019-01-02T00:14:24.899Z,70.74
2019-01-02T00:16:53.698Z,70.53
2019-01-02T00:19:22.529Z,70.30
2019-01-02T00:21:51.326Z,70.84
2019-01-02T00:24:20.197Z,71.53
2019-01-02T00:26:49.139Z,71.53
2019-01-02T00:29:17.908Z,71.97
2019-01-02T00:31:46.781Z,71.88
2019-01-02T00:34:15.608Z,72.11
2019-01-02T00:36:44.544Z,71.54
2019-01-02T00:39:13.438Z,72.21
2019-01-02T00:41:42.220Z,72.04
2019-01-02T00:44:11.011Z,72.35
2019-01-02T00:46:39.824Z,72.30
2019-01-02T00:49:08.624Z,72.07
2019-01-02T00:51:37.426Z,72.09
2019-01-02T00:54:06.264Z,72.34
2019-01-02T00:56:35.841Z,72.34
2019-01-02T00:59:04.625Z,72.46
2019-01-02T01:01:33.412Z,72.86
2019-01-02T01:04:02.190Z,72.62
2019-01-02T01:06:32.128Z,72.67
2019-01-02T01:09:01.582Z,73.09
2019-01-02T01:11:31.461Z,73.20
2019-01-02T01:14:00.284Z,73.27
2019-01-02T01:16:29.058Z,73.94
2019-01-02T01:18:57.887Z,73.83
2019-01-02T01:21:26.696Z,74.51
2019-01-02T01:23:55.472Z,73.80
2019-01-02T01:26:24.256Z,74.68
2019-01-02T01:28:53.091Z,74.29
2019-01-02T01:31:21.930Z,74.19
2019-01-02T01:33:50.734Z,74.76
2019-01-02T01:36:20.014Z,74.56
2019-01-02T01:38:49.526Z,74.69
2019-01-02T01:41:19.524Z,75.18
2019-01-02T01:43:48.312Z,74.99
2019-01-02T01:46:17.084Z,74.73
2019-01-02T01:48:45.869Z,74.56
2019-01-02T01:51:14.691Z,74.50
2019-01-02T01:53:43.474Z,74.66
2019-01-02T01:56:12.306Z,74.93
2019-01-02T01:58:41.082Z,75.02
2019-01-02T02:01:09.911Z,74.41
2019-01-02T02:03:38.787Z,74.38
2019-01-02T02:06:07.628Z,74.50
2019-01-02T02:08:36.473Z,73.77
2019-01-02T02:11:05.250Z,74.01
2019-01-02T02:13:34.031Z,74.22
2019-01-02T02:16:02.819Z,73.78
2019-01-02T02:18:32.635Z,74.16
2019-01-02T02:21:02.499Z,74.43
2019-01-02T02:23:31.329Z,73.77
2019-01-02T02:26:00.148Z,73.88
2019-01-02T02:28:29.829Z,73.82
2019-01-02T02:30:58.671Z,74.15
2019-01-02T02:33:27.584Z,73.53
2019-01-02T02:35:56.374Z,73.13
2019-01-02T02:38:25.160Z,73.33
2019-01-02T02:40:54.001Z,74.03
2019-01-02T02:43:22.820Z,73.71
2019-01-02T02:45:51.599Z,73.54
2019-01-02T02:48:20.381Z,73.96
2019-01-02T02:50:49.262Z,73.89
2019-01-02T02:53:18.067Z,73.88
2019-01-02T02:55:50.893Z,74.48
2019-01-02T02:58:19.665Z,74.50
2019-01-02T03:00:48.448Z,74.76
2019-01-02T03:03:17.240Z,74.59
2019-01-02T03:05:48.487Z,74.41
2019-01-02T03:08:17.332Z,75.39
2019-01-02T03:10:46.168Z,74.60
2019-01-02T03:13:14.948Z,74.84
2019-01-02T03:15:43.787Z,75.29
2019-01-02T03:18:13.271Z,74.33
2019-01-02T03:20:42.056Z,75.10
2019-01-02T03:23:10.827Z,74.62
2019-01-02T03:25:39.627Z,74.91
2019-01-02T03:28:08.420Z,74.32
2019-01-02T03:30:37.228Z,74.83
2019-01-02T03:33:07.066Z,74.84
2019-01-02T03:35:36.194Z,74.32
2019-01-02T03:38:05.027Z,74.30
2019-01-02T03:40:33.859Z,74.12
2019-01-02T03:43:04.400Z,74.86
2019-01-02T03:45:33.219Z,75.55
2019-01-02T03:48:02.020Z,76.08
2019-01-02T03:50:31.018Z,76.06
2019-01-02T03:52:59.850Z,76.39
2019-01-02T03:55:28.703Z,76.02
2019-01-02T03:57:57.536Z,76.92
2019-01-02T04:00:26.379Z,76.74
2019-01-02T04:02:55.909Z,76.95
2019-01-02T04:05:26.088Z,77.73
2019-01-02T04:07:58.923Z,78.04
2019-01-02T04:10:27.808Z,77.69
2019-01-02T04:12:56.593Z,77.51
2019-01-02T04:15:25.377Z,78.35
2019-01-02T04:17:54.366Z,77.57
2019-01-02T04:20:23.156Z,78.09
2019-01-02T04:22:52.155Z,77.35
2019-01-02T04:25:21.086Z,77.03
2019-01-02T04:27:49.930Z,77.28
2019-01-02T04:30:18.775Z,76.53
2019-01-02T04:32:48.118Z,76.87
2019-01-02T04:35:17.795Z,76.05
2019-01-02T04:37:47.535Z,76.07
2019-01-02T04:40:17.425Z,76.71
2019-01-02T04:42:46.311Z,76.67
2019-01-02T04:45:15.131Z,76.82
2019-01-02T04:47:44.821Z,76.68
2019-01-02T04:50:14.714Z,77.20
2019-01-02T04:52:43.499Z,77.55
2019-01-02T04:55:12.327Z,77.34
2019-01-02T04:57:41.167Z,78.04
2019-01-02T05:00:12.697Z,77.83
2019-01-02T05:02:42.339Z,78.67
2019-01-02T05:05:12.070Z,78.35
2019-01-02T05:07:40.881Z,78.61
2019-01-02T05:10:11.247Z,78.24
2019-01-02T05:12:40.146Z,78.98
2019-01-02T05:15:13.280Z,79.08
2019-01-02T05:17:42.113Z,78.92
2019-01-02T05:20:13.978Z,78.88
2019-01-02T05:22:42.758Z,79.46
2019-01-02T05:25:11.530Z,79.36
2019-01-02T05:27:40.386Z,79.45
2019-01-02T05:30:11.692Z,79.19
2019-01-02T05:32:40.518Z,79.39
2019-01-02T05:35:09.970Z,79.81
2019-01-02T05:37:38.767Z,80.07
2019-01-02T05:40:10.635Z,79.40
2019-01-02T05:42:39.470Z,79.38
2019-01-02T05:45:08.306Z,80.78
2019-01-02T05:47:37.106Z,80.13
2019-01-02T05:50:06.828Z,80.44
2019-01-02T05:52:36.255Z,80.05
2019-01-02T05:55:05.127Z,80.55
2019-01-02T05:57:33.910Z,80.62
2019-01-02T06:00:03.567Z,79.61
2019-01-02T06:02:32.497Z,80.27
2019-01-02T06:05:01.387Z,80.11
2019-01-02T06:07:30.175Z,79.70
2019-01-02T06:09:58.975Z,79.75
2019-01-02T06:12:29.020Z,80.31
2019-01-02T06:14:58.140Z,80.52
2019-01-02T06:17:26.987Z,80.01
2019-01-02T06:19:55.823Z,79.63
2019-01-02T06:22:24.636Z,80.08
2019-01-02T06:24:53.971Z,79.96
2019-01-02T06:27:22.754Z,79.38
2019-01-02T06:29:51.551Z,79.19
2019-01-02T06:32:20.343Z,79.22
2019-01-02T06:34:50.272Z,79.67
2019-01-02T06:37:19.068Z,79.48
2019-01-02T06:39:47.889Z,79.49
2019-01-02T06:42:16.732Z,80.04
2019-01-02T06:44:45.647Z,80.16
2019-01-02T06:47:14.487Z,79.75
2019-01-02T06:49:43.284Z,80.29
2019-01-02T06:52:12.087Z,79.85
2019-01-02T06:54:41.909Z,79.60
2019-01-02T06:57:11.468Z,79.91
2019-01-02T06:59:41.452Z,79.96
2019-01-02T07:02:10.322Z,79.63
2019-01-02T07:04:39.214Z,79.46
2019-01-02T07:07:07.983Z,79.78
2019-01-02T07:09:36.821Z,79.93
2019-01-02T07:12:05.623Z,80.10
2019-01-02T07:14:34.412Z,79.98
2019-01-02T07:17:03.315Z,79.60
2019-01-02T07:19:32.139Z,80.07
2019-01-02T07:22:00.922Z,80.82
2019-01-02T07:24:30.325Z,81.05
2019-01-02T07:26:59.128Z,80.45
2019-01-02T07:29:29.615Z,80.67
2019-01-02T07:31:59.390Z,80.68
2019-01-02T07:34:38.129Z,81.19
2019-01-02T07:37:56.446Z,81.16
2019-01-02T07:40:49.209Z,81.01
2019-01-02T07:43:32.133Z,81.66
2019-01-02T07:46:12.391Z,81.62
2019-01-02T07:49:11.451Z,80.96
2019-01-02T07:53:00.971Z,81.29
2019-01-02T07:55:52.987Z,81.27
2019-01-02T07:58:37.374Z,81.51
2019-01-02T08:01:25.286Z,81.65
2019-01-02T08:04:05.463Z,81.49
2019-01-02T08:07:46.047Z,81.89
2019-01-02T08:12:30.433Z,81.70
2019-01-02T08:17:17.804Z,81.82
2019-01-02T08:20:05.340Z,80.71
2019-01-02T08:22:55.476Z,81.33
2019-01-02T08:27:10.758Z,81.15
2019-01-02T08:29:48.151Z,81.40
2019-01-02T08:32:38.669Z,81.00
2019-01-02T08:35:20.068Z,81.49
2019-01-02T08:38:17.215Z,81.06
2019-01-02T08:41:03.131Z,81.08
2019-01-02T08:43:43.727Z,80.38
2019-01-02T08:46:26.556Z,80.61
2019-01-02T08:49:15.604Z,80.69
2019-01-02T08:52:04.460Z,80.72
2019-01-02T08:54:49.470Z,80.03
2019-01-02T08:57:39.307Z,80.33
2019-01-02T09:02:21.619Z,80.30
2019-01-02T09:05:16.715Z,80.29
2019-01-02T09:07:59.445Z,80.05
2019-01-02T09:10:45.223Z,79.56
2019-01-02T09:14:07.553Z,79.46
2019-01-02T09:16:52.507Z,79.21
2019-01-02T09:19:39.332Z,78.62
2019-01-02T09:22:19.488Z,78.67
2019-01-02T09:26:02.334Z,78.01
2019-01-02T09:29:19.271Z,78.15
2019-01-02T09:32:30.155Z,77.68
2019-01-02T09:35:43.564Z,77.77
2019-01-02T09:38:57.364Z,77.57
2019-01-02T09:42:13.215Z,77.16
2019-01-02T09:47:06.643Z,75.68
2019-01-02T09:49:46.586Z,75.79
2019-01-02T09:52:26.821Z,75.99
2019-01-02T09:56:12.208Z,76.02
2019-01-02T09:59:56.139Z,74.83
2019-01-02T10:02:38.686Z,75.09
2019-01-02T10:06:19.289Z,75.54
2019-01-02T10:09:02.889Z,74.49
2019-01-02T10:11:45.684Z,75.14
2019-01-02T10:15:03.096Z,74.37
2019-01-02T10:17:52.796Z,75.11
2019-01-02T10:20:35.591Z,73.99
2019-01-02T10:23:31.803Z,72.23
2019-01-02T10:26:44.003Z,72.26
2019-01-02T10:29:56.063Z,71.58
2019-01-02T10:33:49.775Z,72.45
2019-01-02T10:36:34.540Z,71.32
2019-01-02T10:39:37.588Z,71.02
2019-01-02T10:42:19.254Z,71.18
2019-01-02T10:45:05.278Z,71.57
2019-01-02T10:47:48.160Z,70.88
2019-01-02T10:50:30.431Z,70.96
2019-01-02T10:53:19.447Z,70.81
2019-01-02T10:55:59.228Z,70.11
2019-01-02T10:58:43.787Z,70.43
2019-01-02T11:01:23.622Z,69.03
2019-01-02T11:04:09.519Z,66.80
2019-01-02T11:06:48.344Z,69.38
2019-01-02T11:10:27.675Z,69.11
2019-01-02T11:13:06.353Z,67.76
2019-01-02T11:15:52.501Z,67.61
2019-01-02T11:20:41.052Z,68.05
2019-01-02T11:23:33.176Z,67.38
2019-01-02T11:26:49.613Z,66.73
2019-01-02T11:30:35.086Z,66.82
2019-01-02T11:33:25.695Z,65.17
2019-01-02T11:36:05.588Z,66.94
2019-01-02T11:38:45.792Z,64.92
2019-01-02T11:41:23.927Z,63.17
2019-01-02T11:44:07.644Z,62.46
2019-01-02T11:46:37.109Z,62.30
2019-01-02T11:49:05.924Z,63.85
2019-01-02T11:51:34.728Z,63.72
2019-01-02T11:54:03.698Z,63.02
2019-01-02T11:56:32.605Z,60.39
2019-01-02T11:59:01.378Z,62.99
2019-01-02T12:01:30.336Z,62.65
2019-01-02T12:03:59.115Z,59.89
2019-01-02T12:06:27.925Z,62.10
2019-01-02T12:08:56.743Z,61.95
2019-01-02T12:11:25.540Z,59.06
2019-01-02T12:13:54.327Z,60.33
2019-01-02T12:16:23.168Z,60.79
2019-01-02T12:18:51.996Z,61.03
2019-01-02T12:21:20.812Z,62.31
2019-01-02T12:23:49.657Z,60.42
2019-01-02T12:26:19.179Z,59.38
2019-01-02T12:28:48.048Z,58.59
2019-01-02T12:31:16.815Z,58.83
2019-01-02T12:33:46.524Z,60.62
2019-01-02T12:36:15.340Z,60.17
2019-01-02T12:38:44.164Z,59.44
2019-01-02T12:41:12.970Z,59.72
2019-01-02T12:43:42.696Z,57.69
2019-01-02T12:46:10.526Z,59.60
2019-01-02T12:48:39.312Z,58.92
2019-01-02T12:51:08.878Z,57.81
2019-01-02T12:53:43.536Z,57.86
2019-01-02T12:56:06.562Z,59.44
2019-01-02T12:58:35.426Z,58.34
2019-01-02T13:01:06.337Z,58.94
2019-01-02T13:03:51.408Z,58.03
2019-01-02T13:08:38.258Z,58.78
2019-01-02T13:11:21.558Z,57.66
2019-01-02T13:14:47.557Z,57.92
2019-01-02T13:17:29.363Z,57.05
2019-01-02T13:20:11.628Z,57.63
2019-01-02T13:23:07.886Z,58.04
2019-01-02T13:25:45.276Z,58.63
2019-01-02T13:28:25.040Z,58.05
2019-01-02T13:31:04.556Z,56.56
2019-01-02T13:33:42.262Z,57.86
2019-01-02T13:36:56.512Z,56.13
2019-01-02T13:39:33.935Z,55.58
2019-01-02T13:42:15.507Z,54.36
2019-01-02T13:44:51.229Z,53.83
2019-01-02T13:47:38.875Z,56.40
2019-01-02T13:51:18.995Z,55.14
2019-01-02T13:53:47.811Z,55.12
2019-01-02T13:56:20.708Z,55.57
2019-01-02T13:58:49.557Z,54.71
2019-01-02T14:01:19.219Z,56.30
2019-01-02T14:03:51.380Z,55.41
2019-01-02T14:06:20.467Z,55.72
2019-01-02T14:08:49.335Z,56.31
2019-01-02T14:11:18.161Z,57.09
2019-01-02T14:13:46.992Z,57.07
2019-01-02T14:16:16.031Z,55.88
2019-01-02T14:18:44.875Z,56.25
2019-01-02T14:21:15.306Z,56.09
2019-01-02T14:23:44.705Z,56.22
2019-01-02T14:26:13.520Z,56.65
2019-01-02T14:28:42.422Z,55.60
2019-01-02T14:31:11.252Z,57.20
2019-01-02T14:33:40.096Z,57.22
2019-01-02T14:36:08.887Z,57.05
2019-01-02T14:38:37.810Z,56.35
2019-01-02T14:41:07.887Z,55.62
2019-01-02T14:43:36.777Z,57.07
2019-01-02T14:46:05.546Z,57.84
2019-01-02T14:48:35.264Z,58.76
2019-01-02T14:51:04.162Z,59.14
2019-01-02T14:53:33.094Z,59.13
2019-01-02T14:56:01.870Z,59.90
2019-01-02T14:58:30.791Z,59.88
2019-01-02T15:01:00.590Z,60.35
2019-01-02T15:03:29.482Z,60.43
2019-01-02T15:05:58.331Z,60.62
2019-01-02T15:08:27.479Z,61.01
2019-01-02T15:10:57.281Z,61.10
2019-01-02T15:13:26.080Z,61.42
2019-01-02T15:15:54.877Z,61.71
2019-01-02T15:18:23.736Z,62.31
2019-01-02T15:20:52.528Z,62.78
2019-01-02T15:23:21.416Z,62.35
2019-01-02T15:25:50.355Z,62.90
2019-01-02T15:28:19.228Z,62.89
2019-01-02T15:30:48.009Z,63.40
2019-01-02T15:33:16.787Z,63.59
2019-01-02T15:35:49.067Z,64.84
2019-01-02T15:38:15.142Z,63.84
2019-01-02T15:40:44.040Z,64.63
2019-01-02T15:43:12.840Z,64.71
2019-01-02T15:45:42.220Z,64.48
2019-01-02T15:48:11.001Z,64.84
2019-01-02T15:50:40.876Z,65.44
2019-01-02T15:53:11.719Z,65.38
2019-01-02T15:55:40.863Z,66.15
2019-01-02T15:58:10.433Z,65.95
2019-01-02T16:00:39.714Z,66.28
2019-01-02T16:03:08.640Z,66.21
2019-01-02T16:05:37.437Z,66.45
2019-01-02T16:08:06.533Z,67.13
2019-01-02T16:10:35.348Z,67.28
2019-01-02T16:13:04.144Z,67.69
2019-01-02T16:15:33.567Z,67.35
2019-01-02T16:18:02.379Z,67.51
2019-01-02T16:20:31.276Z,68.05
2019-01-02T16:23:00.063Z,68.16
2019-01-02T16:25:28.947Z,68.09
2019-01-02T16:30:34.179Z,68.27
2019-01-02T16:33:05.470Z,69.29
2019-01-02T16:35:34.362Z,68.66
2019-01-02T16:38:15.150Z,69.79
2019-01-02T16:40:44.035Z,69.20
2019-01-02T16:43:12.846Z,70.44
2019-01-02T16:45:42.426Z,70.14
2019-01-02T16:48:14.547Z,70.52
2019-01-02T16:50:59.344Z,70.37
2019-01-02T16:53:28.255Z,70.46
2019-01-02T16:55:57.060Z,71.15
2019-01-02T16:58:25.838Z,70.94
2019-01-02T17:00:54.646Z,71.36
2019-01-02T17:03:23.420Z,71.70
2019-01-02T17:06:01.583Z,72.02
2019-01-02T17:08:30.862Z,72.45
2019-01-02T17:11:01.017Z,72.56
2019-01-02T17:13:30.787Z,73.19
2019-01-02T17:16:00.475Z,72.76
2019-01-02T17:18:29.251Z,73.44
2019-01-02T17:21:01.254Z,73.72
2019-01-02T17:23:30.133Z,74.11
2019-01-02T17:26:00.512Z,73.83
2019-01-02T17:28:29.303Z,73.68
2019-01-02T17:30:58.203Z,73.99
2019-01-02T17:33:27.304Z,73.74
2019-01-02T17:35:56.168Z,74.40
2019-01-02T17:38:25.037Z,74.36
2019-01-02T17:40:53.821Z,74.77
2019-01-02T17:43:22.611Z,74.72
2019-01-02T17:45:51.421Z,74.87
2019-01-02T17:48:20.234Z,75.48
2019-01-02T17:50:49.060Z,75.73
2019-01-02T17:53:17.991Z,75.94
2019-01-02T17:55:46.778Z,75.73
2019-01-02T17:58:16.150Z,76.23
2019-01-02T18:00:45.240Z,76.15
2019-01-02T18:03:14.090Z,77.11
2019-01-02T18:05:42.851Z,77.19
2019-01-02T18:08:11.750Z,76.73
2019-01-02T18:10:40.612Z,76.88
2019-01-02T18:13:09.398Z,76.31
2019-01-02T18:15:38.927Z,76.86
2019-01-02T18:18:07.738Z,77.37
2019-01-02T18:20:36.571Z,77.71
2019-01-02T18:23:05.362Z,77.34
2019-01-02T18:25:34.152Z,77.51
2019-01-02T18:28:02.972Z,77.99
2019-01-02T18:30:33.108Z,78.19
2019-01-02T18:33:01.973Z,77.39
2019-01-02T18:35:30.830Z,78.28
2019-01-02T18:37:59.671Z,77.93
2019-01-02T18:40:28.513Z,77.65
2019-01-02T18:42:57.283Z,78.04
2019-01-02T18:45:26.141Z,78.13
2019-01-02T18:47:55.275Z,78.10
2019-01-02T18:50:24.003Z,78.59
2019-01-02T18:52:52.810Z,77.89
2019-01-02T18:55:22.207Z,79.19
2019-01-02T18:57:51.622Z,79.08
2019-01-02T19:00:20.469Z,79.66
2019-01-02T19:02:49.402Z,79.00
2019-01-02T19:05:18.053Z,79.70
2019-01-02T19:07:46.964Z,78.90
2019-01-02T19:10:15.736Z,79.45
2019-01-02T19:12:44.540Z,78.87
2019-01-02T19:15:14.368Z,78.95
2019-01-02T19:17:43.193Z,79.45
2019-01-02T19:20:11.975Z,78.64
2019-01-02T19:22:41.093Z,79.25
2019-01-02T19:25:09.874Z,78.92
2019-01-02T19:27:39.412Z,79.54
2019-01-02T19:30:09.784Z,79.18
2019-01-02T19:32:38.604Z,79.13
2019-01-02T19:35:07.451Z,79.18
2019-01-02T19:37:36.280Z,79.65
2019-01-02T19:40:06.051Z,79.28
2019-01-02T19:42:34.894Z,79.52
2019-01-02T19:45:04.959Z,80.00
2019-01-02T19:47:33.776Z,79.94
2019-01-02T19:50:02.656Z,80.51
2019-01-02T19:52:31.541Z,79.87
2019-01-02T19:55:00.343Z,80.51
2019-01-02T19:57:29.196Z,80.06
2019-01-02T19:59:58.026Z,80.23
2019-01-02T20:02:26.814Z,80.18
2019-01-02T20:04:55.595Z,80.39
2019-01-02T20:07:25.631Z,80.93
2019-01-02T20:09:54.978Z,80.58
2019-01-02T20:12:26.536Z,80.77
2019-01-02T20:14:56.034Z,80.76
2019-01-02T20:17:24.871Z,80.94
2019-01-02T20:19:53.700Z,81.31
2019-01-02T20:22:22.495Z,80.89
2019-01-02T20:24:51.364Z,81.59
2019-01-02T20:27:20.260Z,81.15
2019-01-02T20:29:49.136Z,80.74
2019-01-02T20:32:17.927Z,81.20
2019-01-02T20:34:46.827Z,80.61
2019-01-02T20:37:16.484Z,80.46
2019-01-02T20:39:46.101Z,81.15
2019-01-02T20:42:14.900Z,80.63
2019-01-02T20:44:43.747Z,81.11
2019-01-02T20:47:12.722Z,80.25
2019-01-02T20:49:41.595Z,81.14
2019-01-02T20:52:10.918Z,80.70
2019-01-02T20:54:40.221Z,80.56
2019-01-02T20:57:09.067Z,80.69
2019-01-02T20:59:37.934Z,80.47
2019-01-02T21:02:06.719Z,80.53
2019-01-02T21:04:35.598Z,80.14
2019-01-02T21:07:04.367Z,80.40
2019-01-02T21:09:33.215Z,80.11
2019-01-02T21:12:01.989Z,80.65
2019-01-02T21:14:30.947Z,80.44
2019-01-02T21:16:59.768Z,80.05
2019-01-02T21:19:29.699Z,80.33
2019-01-02T21:22:00.323Z,80.52
2019-01-02T21:24:30.843Z,79.76
2019-01-02T21:27:00.322Z,80.17
2019-01-02T21:29:29.987Z,79.70
2019-01-02T21:31:59.530Z,79.84
2019-01-02T21:34:29.050Z,79.83
2019-01-02T21:36:58.172Z,79.83
2019-01-02T21:39:28.279Z,80.22
2019-01-02T21:41:58.830Z,79.92
2019-01-02T21:44:27.682Z,79.66
2019-01-02T21:46:57.042Z,79.75
2019-01-02T21:49:25.830Z,79.78
2019-01-02T21:51:55.307Z,80.38
2019-01-02T21:54:24.200Z,80.26
2019-01-02T21:56:53.111Z,79.72
2019-01-02T21:59:21.904Z,79.68
2019-01-02T22:01:50.840Z,79.78
2019-01-02T22:04:20.176Z,80.05
2019-01-02T22:06:50.208Z,80.31
2019-01-02T22:09:19.647Z,80.21
2019-01-02T22:11:48.750Z,80.48
2019-01-02T22:14:17.557Z,80.13
2019-01-02T22:16:46.357Z,79.83
2019-01-02T22:19:16.861Z,80.13
2019-01-02T22:21:46.612Z,80.50
2019-01-02T22:24:15.424Z,79.77
2019-01-02T22:26:44.312Z,80.17
2019-01-02T22:29:15.124Z,80.06
2019-01-02T22:31:43.913Z,79.91
2019-01-02T22:34:12.695Z,80.47
2019-01-02T22:36:41.485Z,80.58
2019-01-02T22:39:10.371Z,79.79
2019-01-02T22:41:39.228Z,79.50
2019-01-02T22:44:08.056Z,80.36
2019-01-02T22:46:36.982Z,79.80
2019-01-02T22:49:05.768Z,80.32
2019-01-02T22:51:34.560Z,80.08
2019-01-02T22:54:03.383Z,80.26
2019-01-02T22:56:32.867Z,79.80
2019-01-02T22:59:01.771Z,79.78
2019-01-02T23:01:36.044Z,80.02
2019-01-02T23:04:13.045Z,79.69
2019-01-02T23:06:48.028Z,80.48
2019-01-02T23:09:22.145Z,80.25
2019-01-02T23:11:56.124Z,79.93
2019-01-02T23:14:46.217Z,79.87
2019-01-02T23:17:56.784Z,80.02
2019-01-02T23:22:34.789Z,80.55
2019-01-02T23:25:09.037Z,79.85
2019-01-02T23:27:47.568Z,80.33
2019-01-02T23:30:21.858Z,80.29
2019-01-02T23:32:54.907Z,79.93
2019-01-02T23:37:34.675Z,80.29
2019-01-02T23:40:08.864Z,80.42
2019-01-02T23:42:43.000Z,80.66
2019-01-02T23:45:18.010Z,80.43
2019-01-02T23:47:52.837Z,80.87
2019-01-02T23:51:24.840Z,80.48
2019-01-02T23:53:58.967Z,80.34
2019-01-02T23:56:33.882Z,81.13
2019-01-02T23:59:07.972Z,80.97
